• Join FlightAware (Why Join?)
  • Login
  • US Flag 
03:04AM EDT


 

Airport Tracker/Info


-or-


 

Live Flight TrackerFlight Track Log ✈ N830QS ✈ 20-Jan-2014 ✈ KJAN - KFTW

Flight Track Log - Related Links

Times and Time Zones

All times are in EST time to prevent confusion due to time zone crossing. See the N830QS flight status page for this flight to view local times or setup timezone preferences in your user account.

Time Position Orientation Groundspeed Altitude Reporting Facility
EST Latitude Longitude Course Direction KTS MPH feet Rate Location/Type
04:26PM 32.2481 -90.1214 293° West 233 268 5,500  Level Memphis Center
04:27PM 32.2744 -90.1933 293° West 240 276 9,200 3,480 Climbing Memphis Center
04:28PM 32.3050 -90.2714 295° West 254 292 12,800 3,180 Climbing Memphis Center
04:29PM 32.3372 -90.3536 295° West 269 310 15,800 2,880 Climbing Memphis Center
04:30PM 32.3703 -90.4378 295° West 279 321 18,800 3,120 Climbing Memphis Center
04:31PM 32.4125 -90.5408 296° West 288 331 22,300 2,700 Climbing Memphis Center
04:32PM 32.4464 -90.6278 295° West 290 334 24,400 1,980 Climbing Memphis Center
04:33PM 32.4819 -90.7189 295° West 300 345 26,500 2,040 Climbing Memphis Center
04:34PM 32.5169 -90.8094 295° West 304 350 28,700 2,160 Climbing Memphis Center
04:35PM 32.5525 -90.8978 296° West 301 346 31,000 2,100 Climbing Memphis Center
04:36PM 32.5850 -90.9817 295° West 289 333 33,100 1,440 Climbing Memphis Center
04:37PM 32.6244 -91.0836 295° West 285 328 34,000 420 Climbing Memphis Center
04:38PM 32.6617 -91.1803 295° West 317 365 34,000  Level Memphis Center
04:39PM 32.7025 -91.2828 295° West 340 391 34,000  Level Memphis Center
04:40PM 32.7417 -91.3872 294° West 346 398 34,000  Level Memphis Center
04:41PM 32.7828 -91.4911 295° West 349 402 34,000  Level Memphis Center
04:42PM 32.8292 -91.6136 294° West 343 395 34,000  Level Memphis Center
04:43PM 32.8683 -91.7147 295° West 340 391 34,000  Level Memphis Center
04:44PM 32.9067 -91.8153 294° West 338 389 34,000  Level Memphis Center
04:45PM 32.9475 -91.9161 296° West 338 389 34,000  Level Memphis Center
04:46PM 32.9436 -92.0272 268° West 344 396 34,000  Level Memphis Center
04:48PM 32.9103 -92.1583 253° West 347 399 34,000  Level Memphis Center
04:48PM 32.9006 -92.2242 260° West 348 400 34,000  Level Fort Worth Center
04:49PM 32.8797 -92.3356 257° West 346 398 34,000  Level Fort Worth Center
04:50PM 32.8603 -92.4461 258° West 343 395 34,000  Level Fort Worth Center
04:51PM 32.8397 -92.5575 258° West 343 395 34,000  Level Fort Worth Center
04:52PM 32.8147 -92.6922 258° West 348 400 34,000  Level Fort Worth Center
04:53PM 32.7931 -92.8036 257° West 348 400 34,000  Level Fort Worth Center
04:54PM 32.7731 -92.9133 258° West 342 394 34,000  Level Fort Worth Center
04:55PM 32.7514 -93.0228 257° West 340 391 34,000  Level Fort Worth Center
04:56PM 32.7308 -93.1342 258° West 344 396 34,000  Level Fort Worth Center
04:57PM 32.7114 -93.2447 258° West 344 396 34,000  Level Fort Worth Center
04:59PM 32.6872 -93.3753 258° West 337 388 34,000  Level Fort Worth Center
05:00PM 32.6661 -93.4872 257° West 344 396 34,000  Level Fort Worth Center
05:01PM 32.6442 -93.5989 257° West 346 398 34,000  Level Fort Worth Center
05:02PM 32.6228 -93.7100 257° West 346 398 34,000  Level Fort Worth Center
05:03PM 32.6011 -93.8211 257° West 344 396 34,000  Level Fort Worth Center
05:04PM 32.5800 -93.9314 257° West 343 395 34,000  Level Fort Worth Center
05:05PM 32.5589 -94.0431 257° West 347 399 34,000  Level Fort Worth Center
05:06PM 32.5317 -94.1758 256° West 346 398 34,000  Level Fort Worth Center
05:07PM 32.5100 -94.2864 257° West 346 398 34,000  Level Fort Worth Center
05:08PM 32.4886 -94.3969 257° West 345 397 34,000  Level Fort Worth Center
05:09PM 32.4667 -94.5097 257° West 349 402 34,000  Level Fort Worth Center
05:10PM 32.4444 -94.6225 257° West 353 406 34,000 -480 Level Fort Worth Center
05:11PM 32.4219 -94.7311 256° West 343 395 33,100 -1,980 Descending Fort Worth Center
05:12PM 32.3994 -94.8622 259° West 340 391 30,000 -2,640 Descending Fort Worth Center
05:13PM 32.3811 -94.9736 259° West 345 397 27,700 -2,040 Descending Fort Worth Center
05:14PM 32.3781 -95.0844 268° West 353 406 25,900 -1,800 Descending Fort Worth Center
05:15PM 32.3708 -95.2122 266° West 361 415 24,000 -1,620 Descending Fort Worth Center
05:16PM 32.3636 -95.3403 266° West 352 405 22,600 -1,200 Descending Fort Worth Center
05:17PM 32.3569 -95.4525 266° West 346 398 21,600 -1,020 Descending Fort Worth Center
05:18PM 32.3497 -95.5650 266° West 345 397 20,600 -1,020 Descending Fort Worth Center
05:19PM 32.3425 -95.6803 266° West 347 399 19,600 -960 Descending Fort Worth Center
05:20PM 32.3361 -95.7950 266° West 350 403 18,700 -960 Descending Fort Worth Center
05:21PM 32.3275 -95.9097 265° West 351 404 17,700 -1,020 Descending Fort Worth Center
05:22PM 32.3197 -96.0481 266° West 349 402 16,600 -1,020 Descending Fort Worth Center
05:23PM 32.3122 -96.1600 265° West 344 396 15,600 -1,020 Descending Fort Worth Center
05:24PM 32.3050 -96.2803 266° West 341 392 14,600 -960 Descending Fort Worth Center
05:25PM 32.2969 -96.3892 265° West 336 387 13,700 -900 Descending Fort Worth Center
05:26PM 32.2906 -96.4953 266° West 326 375 12,800 -780 Descending Fort Worth Center
05:28PM 32.2975 -96.5933 275° West 296 341 12,100 -1,080 Descending Fort Worth Center
05:29PM 32.3297 -96.6711 296° West 285 328 10,600 -1,560 Descending Fort Worth Center
05:30PM 32.3431 -96.7628 280° West 268 308 8,900 -1,620 Descending Fort Worth Center
05:31PM 32.3539 -96.8486 279° West 265 305 7,300 -1,380 Descending Fort Worth Center
05:32PM 32.3667 -96.9422 279° West 268 308 6,100 -1,020 Descending Fort Worth Center
05:33PM 32.3767 -97.0294 278° West 268 308 5,200 -1,020 Descending Fort Worth Center
05:34PM 32.3894 -97.1122 280° West 260 299 4,100 -780 Descending Fort Worth Center
05:35PM 32.4194 -97.1758 299° West 211 243 3,600 -540 Descending Fort Worth Center
05:36PM 32.4703 -97.2114 329° Northwest 204 235 3,000 -300 Descending Fort Worth Center
05:37PM 32.5236 -97.2392 336° Northwest 194 223 3,000  Level Fort Worth Center
05:38PM 32.5739 -97.2644 337° Northwest 197 227 3,000  Level Fort Worth Center
05:39PM 32.6250 -97.2892 338° Northwest 198 228 3,000  Level Fort Worth Center
05:40PM 32.6767 -97.3214 332° Northwest 195 224 3,000 -240 Level Fort Worth Center
05:41PM 32.7233 -97.3453 337° Northwest 185 213 2,600 -780 Descending Fort Worth Center
05:42PM 32.7694 -97.3528 352° North 155 178 1,500 -840 Descending Fort Worth Center
05:43PM 32.8003 -97.3578 352° North 114 131 900 -420 Descending Fort Worth Center
05:44PM 32.8275 -97.3614 354° North 112 129 700 -240 Descending Fort Worth Center
05:46PM 32.8167 -97.3500 308° West  Level FlightAware Approximate
05:53PM 32.8193 -97.3617 308° West  Level Estimated